Pagrindinis puslapis
METAR-TAF:

METAR-TAF

Oro uostai :

Maršalo Salų tarptautinis oro uostas

Madžūras, Maršalo salos

platuma: 07-04N, ilguma: 171-17E, Aukštis: 2 m

Dabartinis oras

Ataskaita buvo paskelbta 24 valandos ir 31 minutes, ne 01:57 UTC
Vėjas 24 kt iš Šiaurės Rytų
Temperatūra 31°C
Drėgmė 71%
Slėgis 1006 hPa
Matomumas: 24.1 km
Mažai debesys ne aukštis 1500 ft
Išsisklaidę debesys ne aukštis 5000 ft
Apsiniaukę ne aukštis 30000 ft

METAR: PKMJ 250157Z 05024KT 15SM FEW015 SCT050 OVC300 31/25 A2972

Laikas: 14:28 (02:28 UTC)

Prognozė

Ataskaita buvo paskelbta 6 minutes, ne 02:22 UTC
Prognozė galioja nuo 26 metu 02 UTC su 26 metu 24 UTC
Vėjas 15 kt iš Šiaurės Rytų su gūsio iki 25 kt
Matomumas: 10 km
Išsisklaidę debesys ne aukštis 1600 ft
Išsisklaidę debesys ne aukštis 4000 ft
Su prošvaistėmis ne aukštis 12000 ft
Liūtis kaimynystėje

TAF: PKMJ 260222Z 2602/2624 05015G25KT P6SM VCSH SCT016 SCT040 BKN120

Orai ataskaitas ir orų prognozės (METAR, TAF).

turimą stotys yra geltonos ir raudonos taškus žemėlapyje.

Perkelti pele per norėdami pamatyti stoties vardą.

Tada spustelėkite, norėdami matyti oro stebėjimo ir prognozės.

Norėdami pakeisti žemėlapį: spustelėkite ant žalios mygtukų su juodo kryžiaus žemyn,; žalią mygtuką su brūkšneliu, jei norite nutolinti; arba žalių rodyklių gretimoms žemėlapius.


METAR-TAF: